sensor_id;sensor_type;location;lat;lon;timestamp;P1;durP1;ratioP1;P2;durP2;ratioP2
40793;SDS011;26502;51.886;15.604;2023-06-19T00:02:18;10.20;;;9.30;;
40793;SDS011;26502;51.886;15.604;2023-06-19T00:07:23;9.70;;;8.70;;
40793;SDS011;26502;51.886;15.604;2023-06-19T00:12:29;10.70;;;9.60;;
40793;SDS011;26502;51.886;15.604;2023-06-19T00:17:35;9.80;;;9.00;;
40793;SDS011;26502;51.886;15.604;2023-06-19T00:22:41;12.70;;;9.50;;
40793;SDS011;26502;51.886;15.604;2023-06-19T00:27:47;9.20;;;8.30;;
40793;SDS011;26502;51.886;15.604;2023-06-19T00:32:53;9.80;;;8.90;;
40793;SDS011;26502;51.886;15.604;2023-06-19T00:38:00;9.80;;;8.80;;
40793;SDS011;26502;51.886;15.604;2023-06-19T00:43:06;12.60;;;9.80;;
40793;SDS011;26502;51.886;15.604;2023-06-19T00:48:12;13.80;;;9.90;;
40793;SDS011;26502;51.886;15.604;2023-06-19T00:53:19;8.90;;;8.10;;
40793;SDS011;26502;51.886;15.604;2023-06-19T00:58:27;10.50;;;8.70;;
40793;SDS011;26502;51.886;15.604;2023-06-19T01:03:32;10.90;;;9.30;;
40793;SDS011;26502;51.886;15.604;2023-06-19T01:08:42;10.70;;;9.70;;
40793;SDS011;26502;51.886;15.604;2023-06-19T01:13:55;10.10;;;9.20;;
40793;SDS011;26502;51.886;15.604;2023-06-19T01:19:03;10.20;;;9.30;;
40793;SDS011;26502;51.886;15.604;2023-06-19T01:24:13;10.00;;;9.00;;
40793;SDS011;26502;51.886;15.604;2023-06-19T01:29:19;10.20;;;9.10;;
40793;SDS011;26502;51.886;15.604;2023-06-19T01:34:25;10.00;;;9.20;;
40793;SDS011;26502;51.886;15.604;2023-06-19T01:39:34;10.70;;;9.60;;
40793;SDS011;26502;51.886;15.604;2023-06-19T01:44:40;10.80;;;9.80;;
40793;SDS011;26502;51.886;15.604;2023-06-19T01:49:46;10.90;;;9.80;;
40793;SDS011;26502;51.886;15.604;2023-06-19T01:54:52;10.60;;;9.60;;
40793;SDS011;26502;51.886;15.604;2023-06-19T01:59:58;10.10;;;9.10;;
40793;SDS011;26502;51.886;15.604;2023-06-19T02:05:04;10.20;;;9.20;;
40793;SDS011;26502;51.886;15.604;2023-06-19T02:10:11;10.60;;;9.50;;
40793;SDS011;26502;51.886;15.604;2023-06-19T02:15:17;10.30;;;9.30;;
40793;SDS011;26502;51.886;15.604;2023-06-19T02:20:23;10.50;;;9.10;;
40793;SDS011;26502;51.886;15.604;2023-06-19T02:25:33;10.10;;;9.20;;
40793;SDS011;26502;51.886;15.604;2023-06-19T02:30:38;9.90;;;9.00;;
40793;SDS011;26502;51.886;15.604;2023-06-19T02:35:45;10.00;;;8.90;;
40793;SDS011;26502;51.886;15.604;2023-06-19T02:40:51;11.00;;;10.00;;
40793;SDS011;26502;51.886;15.604;2023-06-19T02:45:57;10.10;;;9.20;;
40793;SDS011;26502;51.886;15.604;2023-06-19T02:51:03;10.80;;;9.80;;
40793;SDS011;26502;51.886;15.604;2023-06-19T02:56:09;10.50;;;9.40;;
40793;SDS011;26502;51.886;15.604;2023-06-19T03:01:15;10.60;;;9.60;;
40793;SDS011;26502;51.886;15.604;2023-06-19T03:06:21;10.10;;;9.10;;
40793;SDS011;26502;51.886;15.604;2023-06-19T03:11:28;10.10;;;9.20;;
40793;SDS011;26502;51.886;15.604;2023-06-19T03:16:34;9.50;;;8.80;;
40793;SDS011;26502;51.886;15.604;2023-06-19T03:21:40;10.40;;;9.10;;
40793;SDS011;26502;51.886;15.604;2023-06-19T03:26:47;9.70;;;8.70;;
40793;SDS011;26502;51.886;15.604;2023-06-19T03:31:53;10.10;;;9.20;;
40793;SDS011;26502;51.886;15.604;2023-06-19T03:37:01;12.30;;;8.30;;
40793;SDS011;26502;51.886;15.604;2023-06-19T03:42:08;9.50;;;8.70;;
40793;SDS011;26502;51.886;15.604;2023-06-19T03:47:14;9.60;;;8.60;;
40793;SDS011;26502;51.886;15.604;2023-06-19T03:52:20;9.70;;;8.50;;
40793;SDS011;26502;51.886;15.604;2023-06-19T03:57:26;10.30;;;9.20;;
40793;SDS011;26502;51.886;15.604;2023-06-19T04:02:32;9.80;;;8.80;;
40793;SDS011;26502;51.886;15.604;2023-06-19T04:07:38;10.90;;;9.50;;
40793;SDS011;26502;51.886;15.604;2023-06-19T04:12:43;8.70;;;7.90;;
40793;SDS011;26502;51.886;15.604;2023-06-19T04:17:50;10.00;;;8.90;;
40793;SDS011;26502;51.886;15.604;2023-06-19T04:22:56;10.30;;;9.30;;
40793;SDS011;26502;51.886;15.604;2023-06-19T04:28:02;10.50;;;9.50;;
40793;SDS011;26502;51.886;15.604;2023-06-19T04:33:08;12.20;;;9.30;;
40793;SDS011;26502;51.886;15.604;2023-06-19T04:38:14;10.10;;;9.00;;
40793;SDS011;26502;51.886;15.604;2023-06-19T04:43:20;12.30;;;9.70;;
40793;SDS011;26502;51.886;15.604;2023-06-19T04:48:27;13.20;;;10.40;;
40793;SDS011;26502;51.886;15.604;2023-06-19T04:53:33;13.90;;;11.70;;
40793;SDS011;26502;51.886;15.604;2023-06-19T04:58:40;11.10;;;10.00;;
40793;SDS011;26502;51.886;15.604;2023-06-19T05:03:49;11.00;;;9.90;;
40793;SDS011;26502;51.886;15.604;2023-06-19T05:08:55;12.90;;;9.60;;
40793;SDS011;26502;51.886;15.604;2023-06-19T05:14:01;12.50;;;11.30;;
40793;SDS011;26502;51.886;15.604;2023-06-19T05:19:07;14.90;;;10.20;;
40793;SDS011;26502;51.886;15.604;2023-06-19T05:24:12;13.80;;;12.40;;
40793;SDS011;26502;51.886;15.604;2023-06-19T05:29:19;14.80;;;12.70;;
40793;SDS011;26502;51.886;15.604;2023-06-19T05:34:24;15.50;;;14.00;;
40793;SDS011;26502;51.886;15.604;2023-06-19T05:39:30;14.80;;;13.20;;
40793;SDS011;26502;51.886;15.604;2023-06-19T05:44:36;15.00;;;13.40;;
40793;SDS011;26502;51.886;15.604;2023-06-19T05:49:43;17.60;;;14.00;;
40793;SDS011;26502;51.886;15.604;2023-06-19T05:54:48;16.10;;;14.30;;
40793;SDS011;26502;51.886;15.604;2023-06-19T05:59:55;14.80;;;13.30;;
40793;SDS011;26502;51.886;15.604;2023-06-19T06:05:00;15.70;;;13.70;;
40793;SDS011;26502;51.886;15.604;2023-06-19T06:10:07;16.30;;;14.20;;
40793;SDS011;26502;51.886;15.604;2023-06-19T06:15:13;16.30;;;13.10;;
40793;SDS011;26502;51.886;15.604;2023-06-19T06:20:19;16.90;;;14.40;;
40793;SDS011;26502;51.886;15.604;2023-06-19T06:25:25;27.10;;;14.40;;
40793;SDS011;26502;51.886;15.604;2023-06-19T06:30:31;14.50;;;13.00;;
40793;SDS011;26502;51.886;15.604;2023-06-19T06:35:37;17.20;;;13.60;;
40793;SDS011;26502;51.886;15.604;2023-06-19T06:40:44;16.40;;;13.40;;
40793;SDS011;26502;51.886;15.604;2023-06-19T06:45:50;16.40;;;11.10;;
40793;SDS011;26502;51.886;15.604;2023-06-19T06:50:56;13.80;;;11.80;;
40793;SDS011;26502;51.886;15.604;2023-06-19T06:56:04;13.80;;;12.40;;
40793;SDS011;26502;51.886;15.604;2023-06-19T07:01:09;14.30;;;11.70;;
40793;SDS011;26502;51.886;15.604;2023-06-19T07:06:15;12.60;;;11.40;;
40793;SDS011;26502;51.886;15.604;2023-06-19T07:11:21;15.70;;;12.30;;
40793;SDS011;26502;51.886;15.604;2023-06-19T07:16:27;13.40;;;11.40;;
40793;SDS011;26502;51.886;15.604;2023-06-19T07:21:33;13.50;;;10.70;;
40793;SDS011;26502;51.886;15.604;2023-06-19T07:26:38;16.20;;;11.40;;
40793;SDS011;26502;51.886;15.604;2023-06-19T07:31:44;11.10;;;9.90;;
40793;SDS011;26502;51.886;15.604;2023-06-19T07:36:50;12.10;;;10.30;;
40793;SDS011;26502;51.886;15.604;2023-06-19T07:41:56;15.70;;;11.20;;
40793;SDS011;26502;51.886;15.604;2023-06-19T07:47:02;12.30;;;11.10;;
40793;SDS011;26502;51.886;15.604;2023-06-19T07:52:08;34.50;;;12.50;;
40793;SDS011;26502;51.886;15.604;2023-06-19T07:57:14;15.40;;;12.70;;
40793;SDS011;26502;51.886;15.604;2023-06-19T08:02:20;13.70;;;12.10;;
40793;SDS011;26502;51.886;15.604;2023-06-19T08:07:26;18.80;;;12.40;;
40793;SDS011;26502;51.886;15.604;2023-06-19T08:12:32;15.80;;;12.00;;
40793;SDS011;26502;51.886;15.604;2023-06-19T08:17:38;16.90;;;12.20;;
40793;SDS011;26502;51.886;15.604;2023-06-19T08:22:45;19.80;;;11.60;;
40793;SDS011;26502;51.886;15.604;2023-06-19T08:27:50;15.90;;;11.40;;
40793;SDS011;26502;51.886;15.604;2023-06-19T08:32:57;16.10;;;10.90;;
40793;SDS011;26502;51.886;15.604;2023-06-19T08:38:02;10.20;;;9.10;;
40793;SDS011;26502;51.886;15.604;2023-06-19T08:43:08;18.60;;;9.80;;
40793;SDS011;26502;51.886;15.604;2023-06-19T08:48:14;10.70;;;8.60;;
40793;SDS011;26502;51.886;15.604;2023-06-19T08:53:20;10.80;;;8.20;;
40793;SDS011;26502;51.886;15.604;2023-06-19T08:58:27;10.60;;;8.50;;
40793;SDS011;26502;51.886;15.604;2023-06-19T09:03:32;11.00;;;8.00;;
40793;SDS011;26502;51.886;15.604;2023-06-19T09:08:38;13.30;;;8.70;;
40793;SDS011;26502;51.886;15.604;2023-06-19T09:13:45;12.70;;;8.50;;
40793;SDS011;26502;51.886;15.604;2023-06-19T09:18:59;10.00;;;7.70;;
40793;SDS011;26502;51.886;15.604;2023-06-19T09:24:06;11.10;;;8.60;;
40793;SDS011;26502;51.886;15.604;2023-06-19T09:34:18;12.80;;;9.00;;
40793;SDS011;26502;51.886;15.604;2023-06-19T09:44:34;10.50;;;8.80;;
40793;SDS011;26502;51.886;15.604;2023-06-19T09:49:49;14.20;;;8.30;;
40793;SDS011;26502;51.886;15.604;2023-06-19T09:55:00;11.50;;;8.60;;
40793;SDS011;26502;51.886;15.604;2023-06-19T10:00:09;15.60;;;8.50;;
40793;SDS011;26502;51.886;15.604;2023-06-19T10:05:18;9.30;;;8.10;;
40793;SDS011;26502;51.886;15.604;2023-06-19T10:10:34;9.50;;;7.80;;
40793;SDS011;26502;51.886;15.604;2023-06-19T10:15:41;7.90;;;7.20;;
40793;SDS011;26502;51.886;15.604;2023-06-19T10:20:50;8.20;;;7.20;;
40793;SDS011;26502;51.886;15.604;2023-06-19T10:25:56;7.80;;;6.90;;
40793;SDS011;26502;51.886;15.604;2023-06-19T10:31:04;7.30;;;6.30;;
40793;SDS011;26502;51.886;15.604;2023-06-19T10:36:15;7.20;;;6.50;;
40793;SDS011;26502;51.886;15.604;2023-06-19T10:41:23;9.20;;;6.10;;
40793;SDS011;26502;51.886;15.604;2023-06-19T10:46:30;8.70;;;5.80;;
40793;SDS011;26502;51.886;15.604;2023-06-19T10:51:38;6.70;;;5.70;;
40793;SDS011;26502;51.886;15.604;2023-06-19T10:56:46;8.70;;;5.90;;
40793;SDS011;26502;51.886;15.604;2023-06-19T11:01:54;7.60;;;6.00;;
40793;SDS011;26502;51.886;15.604;2023-06-19T11:07:04;8.10;;;6.50;;
40793;SDS011;26502;51.886;15.604;2023-06-19T11:12:11;8.70;;;6.10;;
40793;SDS011;26502;51.886;15.604;2023-06-19T11:17:22;6.70;;;5.90;;
40793;SDS011;26502;51.886;15.604;2023-06-19T11:22:38;6.40;;;5.90;;
40793;SDS011;26502;51.886;15.604;2023-06-19T11:27:45;8.30;;;6.20;;
40793;SDS011;26502;51.886;15.604;2023-06-19T11:32:54;6.90;;;4.80;;
40793;SDS011;26502;51.886;15.604;2023-06-19T11:38:00;6.40;;;5.50;;
40793;SDS011;26502;51.886;15.604;2023-06-19T11:43:06;7.20;;;5.40;;
40793;SDS011;26502;51.886;15.604;2023-06-19T11:48:14;7.80;;;5.30;;
40793;SDS011;26502;51.886;15.604;2023-06-19T11:53:25;5.30;;;4.80;;
40793;SDS011;26502;51.886;15.604;2023-06-19T11:58:30;5.30;;;4.90;;
40793;SDS011;26502;51.886;15.604;2023-06-19T12:03:36;5.90;;;5.10;;
40793;SDS011;26502;51.886;15.604;2023-06-19T12:08:43;5.50;;;5.10;;
40793;SDS011;26502;51.886;15.604;2023-06-19T12:13:49;11.00;;;5.20;;
40793;SDS011;26502;51.886;15.604;2023-06-19T12:18:56;10.40;;;5.50;;
40793;SDS011;26502;51.886;15.604;2023-06-19T12:24:02;15.00;;;5.80;;
40793;SDS011;26502;51.886;15.604;2023-06-19T12:29:09;5.50;;;5.00;;
40793;SDS011;26502;51.886;15.604;2023-06-19T12:34:14;5.50;;;5.00;;
40793;SDS011;26502;51.886;15.604;2023-06-19T12:39:21;10.90;;;5.70;;
40793;SDS011;26502;51.886;15.604;2023-06-19T12:44:27;6.00;;;5.00;;
40793;SDS011;26502;51.886;15.604;2023-06-19T12:49:33;8.00;;;5.00;;
40793;SDS011;26502;51.886;15.604;2023-06-19T12:54:39;9.20;;;5.10;;
40793;SDS011;26502;51.886;15.604;2023-06-19T12:59:45;5.60;;;5.10;;
40793;SDS011;26502;51.886;15.604;2023-06-19T13:04:51;6.30;;;5.20;;
40793;SDS011;26502;51.886;15.604;2023-06-19T13:09:57;5.60;;;5.10;;
40793;SDS011;26502;51.886;15.604;2023-06-19T13:15:05;6.00;;;5.40;;
40793;SDS011;26502;51.886;15.604;2023-06-19T13:20:13;6.80;;;5.40;;
40793;SDS011;26502;51.886;15.604;2023-06-19T13:25:18;5.70;;;5.30;;
40793;SDS011;26502;51.886;15.604;2023-06-19T13:30:24;6.90;;;5.30;;
40793;SDS011;26502;51.886;15.604;2023-06-19T13:35:31;5.60;;;5.10;;
40793;SDS011;26502;51.886;15.604;2023-06-19T13:40:37;6.10;;;5.40;;
40793;SDS011;26502;51.886;15.604;2023-06-19T13:45:44;8.20;;;5.50;;
40793;SDS011;26502;51.886;15.604;2023-06-19T13:50:50;10.50;;;5.80;;
40793;SDS011;26502;51.886;15.604;2023-06-19T13:55:56;8.30;;;5.60;;
40793;SDS011;26502;51.886;15.604;2023-06-19T14:01:02;10.90;;;6.20;;
40793;SDS011;26502;51.886;15.604;2023-06-19T14:06:08;8.00;;;6.60;;
40793;SDS011;26502;51.886;15.604;2023-06-19T14:11:15;6.80;;;6.20;;
40793;SDS011;26502;51.886;15.604;2023-06-19T14:16:21;7.50;;;6.90;;
40793;SDS011;26502;51.886;15.604;2023-06-19T14:21:27;7.00;;;6.20;;
40793;SDS011;26502;51.886;15.604;2023-06-19T14:26:32;20.20;;;7.00;;
40793;SDS011;26502;51.886;15.604;2023-06-19T14:31:39;7.30;;;6.60;;
40793;SDS011;26502;51.886;15.604;2023-06-19T14:36:45;16.20;;;6.40;;
40793;SDS011;26502;51.886;15.604;2023-06-19T14:41:52;12.90;;;6.40;;
40793;SDS011;26502;51.886;15.604;2023-06-19T14:46:58;6.70;;;6.10;;
40793;SDS011;26502;51.886;15.604;2023-06-19T14:52:05;7.60;;;6.40;;
40793;SDS011;26502;51.886;15.604;2023-06-19T14:57:11;5.90;;;5.40;;
40793;SDS011;26502;51.886;15.604;2023-06-19T15:02:17;7.40;;;5.60;;
40793;SDS011;26502;51.886;15.604;2023-06-19T15:07:23;6.10;;;5.40;;
40793;SDS011;26502;51.886;15.604;2023-06-19T15:12:29;7.30;;;5.90;;
40793;SDS011;26502;51.886;15.604;2023-06-19T15:17:37;6.10;;;5.60;;
40793;SDS011;26502;51.886;15.604;2023-06-19T15:22:43;6.60;;;5.90;;
40793;SDS011;26502;51.886;15.604;2023-06-19T15:27:48;9.80;;;6.10;;
40793;SDS011;26502;51.886;15.604;2023-06-19T15:32:54;6.60;;;6.00;;
40793;SDS011;26502;51.886;15.604;2023-06-19T15:38:00;6.60;;;6.00;;
40793;SDS011;26502;51.886;15.604;2023-06-19T15:43:06;6.50;;;5.80;;
40793;SDS011;26502;51.886;15.604;2023-06-19T15:48:11;6.50;;;5.60;;
40793;SDS011;26502;51.886;15.604;2023-06-19T15:53:17;7.20;;;6.30;;
40793;SDS011;26502;51.886;15.604;2023-06-19T15:58:23;6.90;;;6.30;;
40793;SDS011;26502;51.886;15.604;2023-06-19T16:03:29;6.40;;;5.80;;
40793;SDS011;26502;51.886;15.604;2023-06-19T16:08:35;7.90;;;6.50;;
40793;SDS011;26502;51.886;15.604;2023-06-19T16:13:41;8.00;;;6.90;;
40793;SDS011;26502;51.886;15.604;2023-06-19T16:18:47;6.70;;;6.00;;
40793;SDS011;26502;51.886;15.604;2023-06-19T16:23:53;9.50;;;6.60;;
40793;SDS011;26502;51.886;15.604;2023-06-19T16:28:58;7.30;;;6.60;;
40793;SDS011;26502;51.886;15.604;2023-06-19T16:34:04;7.80;;;7.00;;
40793;SDS011;26502;51.886;15.604;2023-06-19T16:39:10;6.80;;;6.20;;
40793;SDS011;26502;51.886;15.604;2023-06-19T16:44:17;7.20;;;6.50;;
40793;SDS011;26502;51.886;15.604;2023-06-19T16:49:23;9.70;;;6.80;;
40793;SDS011;26502;51.886;15.604;2023-06-19T16:54:29;8.00;;;7.20;;
40793;SDS011;26502;51.886;15.604;2023-06-19T16:59:35;10.30;;;6.90;;
40793;SDS011;26502;51.886;15.604;2023-06-19T17:04:40;8.10;;;7.30;;
40793;SDS011;26502;51.886;15.604;2023-06-19T17:09:46;7.30;;;6.60;;
40793;SDS011;26502;51.886;15.604;2023-06-19T17:14:52;8.00;;;7.20;;
40793;SDS011;26502;51.886;15.604;2023-06-19T17:20:00;9.50;;;6.40;;
40793;SDS011;26502;51.886;15.604;2023-06-19T17:25:08;7.70;;;6.80;;
40793;SDS011;26502;51.886;15.604;2023-06-19T17:30:14;8.70;;;7.30;;
40793;SDS011;26502;51.886;15.604;2023-06-19T17:35:20;7.80;;;6.70;;
40793;SDS011;26502;51.886;15.604;2023-06-19T17:40:27;7.70;;;6.80;;
40793;SDS011;26502;51.886;15.604;2023-06-19T17:45:33;9.30;;;7.40;;
40793;SDS011;26502;51.886;15.604;2023-06-19T17:50:39;7.90;;;7.10;;
40793;SDS011;26502;51.886;15.604;2023-06-19T17:55:45;11.70;;;7.40;;
40793;SDS011;26502;51.886;15.604;2023-06-19T18:00:51;7.90;;;7.10;;
40793;SDS011;26502;51.886;15.604;2023-06-19T18:05:57;8.00;;;7.20;;
40793;SDS011;26502;51.886;15.604;2023-06-19T18:11:02;17.90;;;7.70;;
40793;SDS011;26502;51.886;15.604;2023-06-19T18:16:08;56.70;;;12.50;;
40793;SDS011;26502;51.886;15.604;2023-06-19T18:21:14;136.30;;;21.90;;
40793;SDS011;26502;51.886;15.604;2023-06-19T18:26:20;8.70;;;7.00;;
40793;SDS011;26502;51.886;15.604;2023-06-19T18:31:25;139.60;;;14.70;;
40793;SDS011;26502;51.886;15.604;2023-06-19T18:36:31;180.80;;;18.20;;
40793;SDS011;26502;51.886;15.604;2023-06-19T18:41:37;96.90;;;15.70;;
40793;SDS011;26502;51.886;15.604;2023-06-19T18:46:43;65.40;;;13.80;;
40793;SDS011;26502;51.886;15.604;2023-06-19T18:51:51;12.30;;;8.10;;
40793;SDS011;26502;51.886;15.604;2023-06-19T18:56:57;8.90;;;8.00;;
40793;SDS011;26502;51.886;15.604;2023-06-19T19:02:03;9.30;;;8.30;;
40793;SDS011;26502;51.886;15.604;2023-06-19T19:07:09;9.70;;;8.50;;
40793;SDS011;26502;51.886;15.604;2023-06-19T19:12:15;9.30;;;8.40;;
40793;SDS011;26502;51.886;15.604;2023-06-19T19:17:21;10.00;;;9.10;;
40793;SDS011;26502;51.886;15.604;2023-06-19T19:22:27;10.60;;;9.10;;
40793;SDS011;26502;51.886;15.604;2023-06-19T19:27:33;13.40;;;8.60;;
40793;SDS011;26502;51.886;15.604;2023-06-19T19:32:39;12.50;;;9.30;;
40793;SDS011;26502;51.886;15.604;2023-06-19T19:37:45;9.60;;;8.80;;
40793;SDS011;26502;51.886;15.604;2023-06-19T19:42:50;10.20;;;9.20;;
40793;SDS011;26502;51.886;15.604;2023-06-19T19:47:56;10.60;;;9.50;;
40793;SDS011;26502;51.886;15.604;2023-06-19T19:53:02;10.90;;;9.80;;
40793;SDS011;26502;51.886;15.604;2023-06-19T19:58:08;15.60;;;10.10;;
40793;SDS011;26502;51.886;15.604;2023-06-19T20:03:16;12.70;;;10.10;;
40793;SDS011;26502;51.886;15.604;2023-06-19T20:08:22;15.00;;;10.30;;
40793;SDS011;26502;51.886;15.604;2023-06-19T20:13:28;13.40;;;11.60;;
40793;SDS011;26502;51.886;15.604;2023-06-19T20:18:36;12.50;;;11.30;;
40793;SDS011;26502;51.886;15.604;2023-06-19T20:23:41;11.00;;;9.90;;
40793;SDS011;26502;51.886;15.604;2023-06-19T20:28:47;11.70;;;10.70;;
40793;SDS011;26502;51.886;15.604;2023-06-19T20:33:53;11.90;;;10.70;;
40793;SDS011;26502;51.886;15.604;2023-06-19T20:38:59;12.10;;;11.00;;
40793;SDS011;26502;51.886;15.604;2023-06-19T20:44:08;11.50;;;10.50;;
40793;SDS011;26502;51.886;15.604;2023-06-19T20:49:14;11.50;;;10.50;;
40793;SDS011;26502;51.886;15.604;2023-06-19T20:54:20;11.80;;;10.70;;
40793;SDS011;26502;51.886;15.604;2023-06-19T20:59:26;11.80;;;10.80;;
40793;SDS011;26502;51.886;15.604;2023-06-19T21:04:31;12.60;;;11.40;;
40793;SDS011;26502;51.886;15.604;2023-06-19T21:09:37;12.20;;;11.10;;
40793;SDS011;26502;51.886;15.604;2023-06-19T21:14:44;13.40;;;12.20;;
40793;SDS011;26502;51.886;15.604;2023-06-19T21:19:49;12.50;;;11.30;;
40793;SDS011;26502;51.886;15.604;2023-06-19T21:24:55;12.80;;;11.70;;
40793;SDS011;26502;51.886;15.604;2023-06-19T21:30:01;14.40;;;11.60;;
40793;SDS011;26502;51.886;15.604;2023-06-19T21:35:07;13.20;;;12.10;;
40793;SDS011;26502;51.886;15.604;2023-06-19T21:40:13;13.70;;;12.30;;
40793;SDS011;26502;51.886;15.604;2023-06-19T21:45:20;13.60;;;12.40;;
40793;SDS011;26502;51.886;15.604;2023-06-19T21:50:27;14.10;;;12.50;;
40793;SDS011;26502;51.886;15.604;2023-06-19T21:55:32;15.10;;;13.60;;
40793;SDS011;26502;51.886;15.604;2023-06-19T22:00:38;13.70;;;12.50;;
40793;SDS011;26502;51.886;15.604;2023-06-19T22:05:44;13.80;;;12.60;;
40793;SDS011;26502;51.886;15.604;2023-06-19T22:10:50;13.40;;;12.20;;
40793;SDS011;26502;51.886;15.604;2023-06-19T22:15:56;13.90;;;12.70;;
40793;SDS011;26502;51.886;15.604;2023-06-19T22:21:02;14.80;;;13.30;;
40793;SDS011;26502;51.886;15.604;2023-06-19T22:26:08;14.90;;;13.30;;
40793;SDS011;26502;51.886;15.604;2023-06-19T22:31:14;14.40;;;13.10;;
40793;SDS011;26502;51.886;15.604;2023-06-19T22:36:20;15.50;;;12.10;;
40793;SDS011;26502;51.886;15.604;2023-06-19T22:41:26;13.40;;;12.10;;
40793;SDS011;26502;51.886;15.604;2023-06-19T22:46:32;13.90;;;12.60;;
40793;SDS011;26502;51.886;15.604;2023-06-19T22:51:37;13.30;;;12.20;;
40793;SDS011;26502;51.886;15.604;2023-06-19T22:56:43;13.40;;;12.00;;
40793;SDS011;26502;51.886;15.604;2023-06-19T23:01:49;14.30;;;12.90;;
40793;SDS011;26502;51.886;15.604;2023-06-19T23:06:55;13.00;;;11.80;;
40793;SDS011;26502;51.886;15.604;2023-06-19T23:12:04;13.10;;;11.90;;
40793;SDS011;26502;51.886;15.604;2023-06-19T23:17:12;14.20;;;12.80;;
40793;SDS011;26502;51.886;15.604;2023-06-19T23:22:17;14.30;;;12.90;;
40793;SDS011;26502;51.886;15.604;2023-06-19T23:27:27;14.40;;;12.90;;
40793;SDS011;26502;51.886;15.604;2023-06-19T23:32:33;16.90;;;12.40;;
40793;SDS011;26502;51.886;15.604;2023-06-19T23:37:39;13.20;;;12.00;;
40793;SDS011;26502;51.886;15.604;2023-06-19T23:42:45;14.10;;;11.90;;
40793;SDS011;26502;51.886;15.604;2023-06-19T23:47:50;14.10;;;12.80;;
40793;SDS011;26502;51.886;15.604;2023-06-19T23:52:57;15.00;;;13.60;;
40793;SDS011;26502;51.886;15.604;2023-06-19T23:58:03;14.20;;;12.60;;
